Niva, Denmark
Current Conditions -  °F | °C
As of 2:20 PM on Thursday 30 Oct 2014 (Local Time) from EKCH Reporting Station
Broken Clouds Broken Clouds  
Wind Chill: 52°   Ceiling: 25000
Heat Index: 52°   Visibility: 6mi
Dew Point: 39°   Wind: 6mph
Humidity: 62%   Direction: 280°W
Pressure: 30.24"   Gusts: NA
Location:  55.93°N, 12.5°E
Report Text: EKCH 301320Z 28005KT 9999 FEW030 BKN250 11/04 Q1024 NOSIG
Loading
Personal Weather Stations






























Interactive Weather Map
Tropical Storm Tracking
New forecast layout! Learn more

10-Day Weather Forecast

Advertisements
Track Severe Weather on mobile